PKWA/KWA METAR and TAF weather

Enter ICAO airport designator
Station Type Date Time Source
PKWA METAR 2020/01/23 18:20 UTC NOAA

PKWA 231820Z AUTO 05016G27KT 10SM SCT031 SCT039 BKN045 28/24 A2984 RMK AO2 T02800237


Station Type Date Time Source
PKWA Decoded METAR 2020/01/23 18:20 UTC NOAA

Kwajalein, Bucholz AAF, Kwajalein KMR ATOL Airport, Marshall Islands (PKWA) 08-43N 167-44E 2M
Jan 23, 2020 - 01:20 PM EST / 2020.01.23 1820 UTC
Wind: from the NE (050 degrees) at 18 MPH (16 KT) gusting to 31 MPH (27 KT):0
Visibility: 10 mile(s):0
Sky conditions: mostly cloudy
Temperature: 82.4 F (28.0 C)
Dew Point: 74.7 F (23.7 C)
Relative Humidity: 77%
Pressure (altimeter): 29.84 in. Hg (1010 hPa)
ob: PKWA 231820Z AUTO 05016G27KT 10SM SCT031 SCT039 BKN045 28/24 A2984 RMK AO2 T02800237
cycle: 18

Station Type Date Time Source
PKWA TAF 2020/01/23 18:09 UTC NOAA

TAF PKWA 231803Z 2318/2418 05018G28KT P6SM VCSH SCT020 SCT050 BKN120

Example: see airport list